createdAt,value
2018-08-20T00:00:49.974Z,19.40
2018-08-20T00:03:18.538Z,19.40
2018-08-20T00:05:50.178Z,19.30
2018-08-20T00:08:25.226Z,19.30
2018-08-20T00:10:56.702Z,19.30
2018-08-20T00:13:25.947Z,19.20
2018-08-20T00:15:55.250Z,19.20
2018-08-20T00:18:29.152Z,19.10
2018-08-20T00:20:57.740Z,19.10
2018-08-20T00:23:26.272Z,19.00
2018-08-20T00:25:56.965Z,18.90
2018-08-20T00:28:25.858Z,18.90
2018-08-20T00:30:54.419Z,18.80
2018-08-20T00:33:23.003Z,18.80
2018-08-20T00:35:51.612Z,18.80
2018-08-20T00:38:20.172Z,18.80
2018-08-20T00:40:48.784Z,18.80
2018-08-20T00:43:17.315Z,18.80
2018-08-20T00:45:45.854Z,18.70
2018-08-20T00:48:14.460Z,18.70
2018-08-20T00:50:42.995Z,18.70
2018-08-20T00:53:11.519Z,18.70
2018-08-20T00:55:40.163Z,18.60
2018-08-20T00:58:08.696Z,18.60
2018-08-20T01:00:37.240Z,18.50
2018-08-20T01:03:05.786Z,18.50
2018-08-20T01:05:34.290Z,18.50
2018-08-20T01:08:02.898Z,18.50
2018-08-20T01:10:31.422Z,18.50
2018-08-20T01:12:59.970Z,18.40
2018-08-20T01:15:28.580Z,18.50
2018-08-20T01:17:57.141Z,18.40
2018-08-20T01:20:25.718Z,18.40
2018-08-20T01:22:54.263Z,18.30
2018-08-20T01:25:22.823Z,18.30
2018-08-20T01:27:51.402Z,18.20
2018-08-20T01:30:19.944Z,18.20
2018-08-20T01:32:48.505Z,18.20
2018-08-20T01:35:27.875Z,18.20
2018-08-20T01:37:56.619Z,18.20
2018-08-20T01:40:25.451Z,18.10
2018-08-20T01:42:54.017Z,18.10
2018-08-20T01:45:22.538Z,18.10
2018-08-20T01:47:51.134Z,18.00
2018-08-20T01:50:19.637Z,18.00
2018-08-20T01:52:48.198Z,17.90
2018-08-20T01:55:16.814Z,17.90
2018-08-20T01:57:45.319Z,17.90
2018-08-20T02:00:13.965Z,17.80
2018-08-20T02:02:42.590Z,17.90
2018-08-20T02:05:11.214Z,17.80
2018-08-20T02:07:39.778Z,17.70
2018-08-20T02:10:08.439Z,17.60
2018-08-20T02:12:37.069Z,17.60
2018-08-20T02:15:05.682Z,17.60
2018-08-20T02:17:34.300Z,17.50
2018-08-20T02:20:02.973Z,17.50
2018-08-20T02:22:31.763Z,17.50
2018-08-20T02:25:00.440Z,17.50
2018-08-20T02:27:29.029Z,17.50
2018-08-20T02:29:57.565Z,17.50
2018-08-20T02:32:26.131Z,17.50
2018-08-20T02:34:54.658Z,17.50
2018-08-20T02:37:25.766Z,17.50
2018-08-20T02:39:54.345Z,17.40
2018-08-20T02:42:22.953Z,17.30
2018-08-20T02:44:51.493Z,17.30
2018-08-20T02:47:20.094Z,17.30
2018-08-20T02:49:48.606Z,17.20
2018-08-20T02:52:17.193Z,17.20
2018-08-20T02:54:45.709Z,17.20
2018-08-20T02:57:14.314Z,17.20
2018-08-20T02:59:42.850Z,17.20
2018-08-20T03:02:11.444Z,17.10
2018-08-20T03:04:39.950Z,17.10
2018-08-20T03:07:08.527Z,17.10
2018-08-20T03:09:37.071Z,17.00
2018-08-20T03:12:05.676Z,16.90
2018-08-20T03:14:34.236Z,16.80
2018-08-20T03:17:02.798Z,16.80
2018-08-20T03:19:31.359Z,16.80
2018-08-20T03:21:59.919Z,16.80
2018-08-20T03:24:28.510Z,16.80
2018-08-20T03:26:57.125Z,16.80
2018-08-20T03:29:25.679Z,16.80
2018-08-20T03:31:54.251Z,16.80
2018-08-20T03:34:22.799Z,16.70
2018-08-20T03:36:51.434Z,16.70
2018-08-20T03:39:21.000Z,16.70
2018-08-20T03:41:49.578Z,16.70
2018-08-20T03:44:18.166Z,16.70
2018-08-20T03:46:46.747Z,16.70
2018-08-20T03:49:15.312Z,16.70
2018-08-20T03:51:43.851Z,16.70
2018-08-20T03:54:12.486Z,16.60
2018-08-20T03:56:41.088Z,16.60
2018-08-20T03:59:11.294Z,16.60
2018-08-20T04:01:39.870Z,16.60
2018-08-20T04:04:08.395Z,16.50
2018-08-20T04:06:36.982Z,16.50
2018-08-20T04:09:06.178Z,16.50
2018-08-20T04:11:34.718Z,16.50
2018-08-20T04:14:03.339Z,16.60
2018-08-20T04:16:31.875Z,16.60
2018-08-20T04:19:04.671Z,16.60
2018-08-20T04:21:33.208Z,16.60
2018-08-20T04:24:01.765Z,16.60
2018-08-20T04:26:30.330Z,16.50
2018-08-20T04:28:58.866Z,16.40
2018-08-20T04:31:27.436Z,16.20
2018-08-20T04:33:55.996Z,16.20
2018-08-20T04:36:24.643Z,16.20
2018-08-20T04:38:59.103Z,16.10
2018-08-20T04:41:27.708Z,16.20
2018-08-20T04:43:56.277Z,16.30
2018-08-20T04:46:24.859Z,16.30
2018-08-20T04:48:53.419Z,16.40
2018-08-20T04:51:22.194Z,16.40
2018-08-20T04:53:50.561Z,16.50
2018-08-20T04:56:19.151Z,16.50
2018-08-20T04:58:47.860Z,16.50
2018-08-20T05:01:16.394Z,16.50
2018-08-20T05:03:45.012Z,16.60
2018-08-20T05:06:13.599Z,16.60
2018-08-20T05:08:42.144Z,16.60
2018-08-20T05:11:10.712Z,16.70
2018-08-20T05:13:39.225Z,16.90
2018-08-20T05:16:07.818Z,17.20
2018-08-20T05:18:36.388Z,17.50
2018-08-20T05:21:04.963Z,18.00
2018-08-20T05:23:33.511Z,18.50
2018-08-20T05:26:02.086Z,18.90
2018-08-20T05:28:30.619Z,19.40
2018-08-20T05:30:59.182Z,19.90
2018-08-20T05:33:27.730Z,20.20
2018-08-20T05:35:56.298Z,20.40
2018-08-20T05:38:24.865Z,20.60
2018-08-20T05:40:53.396Z,21.00
2018-08-20T05:43:21.966Z,21.40
2018-08-20T05:45:50.577Z,21.80
2018-08-20T05:48:19.151Z,22.20
2018-08-20T05:51:02.083Z,22.60
2018-08-20T05:53:30.654Z,22.90
2018-08-20T05:55:59.223Z,23.30
2018-08-20T05:58:27.839Z,23.70
2018-08-20T06:00:56.405Z,24.00
2018-08-20T06:03:25.237Z,24.30
2018-08-20T06:05:53.822Z,24.60
2018-08-20T06:08:22.358Z,24.90
2018-08-20T06:10:50.947Z,25.10
2018-08-20T06:13:19.538Z,25.20
2018-08-20T06:15:48.071Z,25.60
2018-08-20T06:18:16.657Z,26.00
2018-08-20T06:20:45.250Z,26.50
2018-08-20T06:23:13.800Z,27.10
2018-08-20T06:25:42.369Z,27.50
2018-08-20T06:28:11.007Z,28.10
2018-08-20T06:30:39.630Z,28.70
2018-08-20T06:33:08.310Z,28.90
2018-08-20T06:35:36.954Z,29.10
2018-08-20T06:38:05.563Z,29.30
2018-08-20T06:40:34.135Z,29.30
2018-08-20T06:43:02.679Z,29.80
2018-08-20T06:45:31.232Z,30.10
2018-08-20T06:47:59.802Z,30.80
2018-08-20T06:50:28.391Z,31.30
2018-08-20T06:52:56.943Z,32.10
2018-08-20T06:55:25.522Z,32.80
2018-08-20T06:57:54.098Z,33.40
2018-08-20T07:00:22.694Z,33.80
2018-08-20T07:02:51.225Z,33.80
2018-08-20T07:05:19.863Z,34.50
2018-08-20T07:07:48.471Z,35.10
2018-08-20T07:10:17.057Z,35.60
2018-08-20T07:12:45.667Z,36.30
2018-08-20T07:15:15.350Z,36.70
2018-08-20T07:17:44.254Z,37.20
2018-08-20T07:20:14.680Z,37.60
2018-08-20T07:22:43.404Z,38.00
2018-08-20T07:25:11.979Z,38.60
2018-08-20T07:27:40.530Z,39.00
2018-08-20T07:30:10.903Z,39.40
2018-08-20T07:32:39.482Z,39.70
2018-08-20T07:35:08.122Z,40.20
2018-08-20T07:37:36.692Z,40.40
2018-08-20T07:40:06.765Z,40.40
2018-08-20T07:42:35.361Z,40.70
2018-08-20T07:45:04.019Z,41.30
2018-08-20T07:47:32.554Z,41.40
2018-08-20T07:50:01.087Z,41.80
2018-08-20T07:52:29.694Z,42.40
2018-08-20T07:54:58.231Z,42.70
2018-08-20T07:57:26.758Z,42.70
2018-08-20T07:59:55.302Z,42.90
2018-08-20T08:02:23.947Z,43.60
2018-08-20T08:04:52.494Z,43.50
2018-08-20T08:07:21.091Z,44.00
2018-08-20T08:09:49.647Z,44.30
2018-08-20T08:12:18.227Z,45.00
2018-08-20T08:14:46.836Z,45.30
2018-08-20T08:17:15.402Z,44.90
2018-08-20T08:19:43.985Z,45.30
2018-08-20T08:22:12.613Z,45.70
2018-08-20T08:24:41.253Z,46.30
2018-08-20T08:27:10.014Z,46.60
2018-08-20T08:29:38.558Z,47.10
2018-08-20T08:32:07.190Z,47.10
2018-08-20T08:34:35.795Z,47.70
2018-08-20T08:37:04.483Z,47.60
2018-08-20T08:39:33.078Z,47.50
2018-08-20T08:42:01.666Z,47.70
2018-08-20T08:44:30.241Z,47.70
2018-08-20T08:46:58.849Z,47.90
2018-08-20T08:49:27.463Z,47.80
2018-08-20T08:51:56.053Z,48.50
2018-08-20T08:54:24.622Z,48.60
2018-08-20T08:56:53.218Z,49.20
2018-08-20T08:59:21.837Z,49.20
2018-08-20T09:01:50.454Z,49.20
2018-08-20T09:04:19.055Z,49.60
2018-08-20T09:06:47.595Z,48.80
2018-08-20T09:09:16.192Z,49.10
2018-08-20T09:11:44.733Z,49.20
2018-08-20T09:14:13.331Z,49.30
2018-08-20T09:16:41.931Z,49.20
2018-08-20T09:19:11.106Z,49.40
2018-08-20T09:21:39.728Z,49.60
2018-08-20T09:24:08.370Z,50.30
2018-08-20T09:26:36.938Z,50.60
2018-08-20T09:29:06.180Z,49.60
2018-08-20T09:31:34.770Z,49.10
2018-08-20T09:34:03.362Z,48.90
2018-08-20T09:36:31.912Z,48.60
2018-08-20T09:39:00.463Z,48.80
2018-08-20T09:41:29.372Z,49.00
2018-08-20T09:43:57.952Z,49.30
2018-08-20T09:46:26.576Z,48.60
2018-08-20T09:48:55.214Z,47.10
2018-08-20T09:51:23.798Z,45.60
2018-08-20T09:53:52.346Z,46.00
2018-08-20T09:56:20.879Z,46.70
2018-08-20T09:58:50.050Z,48.00
2018-08-20T10:01:18.619Z,48.80
2018-08-20T10:03:47.307Z,48.30
2018-08-20T10:06:16.347Z,48.50
2018-08-20T10:08:45.105Z,47.90
2018-08-20T10:11:13.995Z,48.30
2018-08-20T10:13:42.547Z,48.70
2018-08-20T10:16:11.135Z,48.90
2018-08-20T10:18:40.091Z,48.40
2018-08-20T10:21:08.678Z,46.80
2018-08-20T10:23:37.205Z,46.90
2018-08-20T10:26:06.223Z,47.30
2018-08-20T10:28:34.808Z,47.70
2018-08-20T10:31:03.367Z,48.20
2018-08-20T10:33:32.028Z,48.00
2018-08-20T10:36:00.620Z,47.10
2018-08-20T10:38:29.148Z,46.40
2018-08-20T10:40:57.823Z,46.30
2018-08-20T10:43:26.362Z,45.90
2018-08-20T10:46:00.188Z,44.20
2018-08-20T10:48:28.790Z,43.80
2018-08-20T10:50:57.404Z,43.40
2018-08-20T10:53:26.022Z,42.00
2018-08-20T10:55:54.543Z,41.40
2018-08-20T10:58:23.134Z,40.40
2018-08-20T11:00:51.699Z,38.60
2018-08-20T11:03:20.254Z,37.40
2018-08-20T11:05:48.839Z,36.40
2018-08-20T11:08:17.398Z,35.40
2018-08-20T11:10:45.990Z,35.00
2018-08-20T11:13:14.595Z,33.90
2018-08-20T11:15:43.111Z,32.90
2018-08-20T11:18:11.675Z,32.90
2018-08-20T11:20:40.266Z,33.10
2018-08-20T11:23:08.815Z,33.10
2018-08-20T11:25:37.428Z,32.80
2018-08-20T11:28:06.257Z,32.90
2018-08-20T11:30:34.826Z,33.10
2018-08-20T11:33:03.490Z,33.20
2018-08-20T11:35:32.085Z,33.10
2018-08-20T11:38:00.615Z,32.90
2018-08-20T11:40:29.183Z,32.70
2018-08-20T11:42:57.722Z,32.80
2018-08-20T11:45:26.250Z,33.10
2018-08-20T11:47:54.818Z,33.10
2018-08-20T11:50:24.148Z,32.90
2018-08-20T11:52:52.671Z,32.20
2018-08-20T11:55:21.254Z,31.40
2018-08-20T11:57:49.809Z,30.90
2018-08-20T12:00:18.370Z,31.20
2018-08-20T12:02:46.971Z,31.70
2018-08-20T12:05:15.574Z,32.20
2018-08-20T12:07:44.168Z,32.40
2018-08-20T12:10:12.771Z,32.70
2018-08-20T12:12:41.360Z,32.50
2018-08-20T12:15:11.675Z,32.60
2018-08-20T12:17:40.705Z,32.50
2018-08-20T12:20:09.894Z,32.70
2018-08-20T12:22:39.466Z,32.80
2018-08-20T12:25:10.019Z,33.00
2018-08-20T12:27:38.584Z,33.10
2018-08-20T12:30:08.203Z,33.10
2018-08-20T12:32:36.742Z,33.30
2018-08-20T12:35:05.435Z,33.10
2018-08-20T12:37:33.966Z,33.00
2018-08-20T12:40:02.679Z,32.90
2018-08-20T12:42:31.108Z,32.60
2018-08-20T12:44:59.656Z,32.70
2018-08-20T12:47:28.253Z,32.80
2018-08-20T12:49:56.762Z,32.90
2018-08-20T12:52:25.355Z,32.90
2018-08-20T12:54:53.891Z,32.90
2018-08-20T12:57:22.450Z,32.70
2018-08-20T12:59:53.671Z,32.70
2018-08-20T13:02:22.445Z,32.60
2018-08-20T13:04:51.882Z,32.30
2018-08-20T13:07:20.490Z,32.30
2018-08-20T13:09:49.035Z,32.60
2018-08-20T13:12:17.571Z,32.60
2018-08-20T13:14:46.807Z,32.80
2018-08-20T13:17:15.882Z,32.80
2018-08-20T13:19:44.479Z,32.80
2018-08-20T13:22:13.043Z,32.70
2018-08-20T13:24:41.611Z,32.80
2018-08-20T13:27:10.198Z,33.20
2018-08-20T13:29:38.728Z,33.70
2018-08-20T13:32:07.524Z,34.30
2018-08-20T13:34:36.113Z,34.90
2018-08-20T13:37:04.838Z,35.30
2018-08-20T13:39:33.439Z,35.70
2018-08-20T13:42:01.999Z,36.00
2018-08-20T13:44:30.551Z,36.00
2018-08-20T13:46:59.118Z,35.70
2018-08-20T13:49:27.691Z,35.50
2018-08-20T13:51:56.257Z,35.50
2018-08-20T13:54:24.836Z,35.50
2018-08-20T13:56:53.423Z,35.40
2018-08-20T13:59:21.947Z,35.20
2018-08-20T14:01:50.543Z,34.80
2018-08-20T14:04:19.135Z,34.60
2018-08-20T14:06:47.681Z,34.60
2018-08-20T14:09:16.221Z,34.40
2018-08-20T14:11:44.761Z,34.30
2018-08-20T14:14:13.282Z,34.00
2018-08-20T14:16:41.814Z,33.60
2018-08-20T14:19:10.354Z,33.40
2018-08-20T14:21:38.922Z,33.30
2018-08-20T14:24:07.455Z,33.20
2018-08-20T14:26:36.083Z,33.10
2018-08-20T14:29:04.694Z,32.90
2018-08-20T14:31:33.274Z,32.60
2018-08-20T14:34:01.835Z,32.30
2018-08-20T14:36:30.403Z,32.20
2018-08-20T14:38:58.941Z,32.20
2018-08-20T14:41:27.543Z,32.30
2018-08-20T14:43:56.091Z,32.30
2018-08-20T14:46:24.650Z,32.30
2018-08-20T14:48:53.702Z,32.20
2018-08-20T14:51:22.394Z,32.10
2018-08-20T14:53:51.012Z,32.10
2018-08-20T14:56:19.621Z,32.10
2018-08-20T14:58:48.147Z,32.00
2018-08-20T15:01:16.676Z,32.00
2018-08-20T15:03:45.282Z,31.70
2018-08-20T15:06:13.811Z,31.50
2018-08-20T15:08:42.353Z,31.70
2018-08-20T15:11:10.933Z,31.80
2018-08-20T15:13:39.458Z,31.80
2018-08-20T15:16:08.139Z,31.60
2018-08-20T15:18:36.786Z,31.60
2018-08-20T15:21:05.390Z,31.50
2018-08-20T15:23:33.964Z,31.40
2018-08-20T15:26:02.503Z,31.40
2018-08-20T15:28:31.102Z,31.20
2018-08-20T15:30:59.676Z,30.90
2018-08-20T15:33:28.271Z,30.60
2018-08-20T15:35:56.968Z,30.60
2018-08-20T15:38:25.777Z,30.60
2018-08-20T15:40:54.347Z,30.60
2018-08-20T15:43:22.910Z,30.60
2018-08-20T15:45:51.508Z,30.40
2018-08-20T15:48:20.080Z,30.30
2018-08-20T15:50:48.617Z,30.20
2018-08-20T15:53:17.199Z,30.20
2018-08-20T15:55:45.792Z,30.20
2018-08-20T15:58:14.327Z,30.20
2018-08-20T16:00:42.907Z,30.20
2018-08-20T16:03:11.447Z,30.20
2018-08-20T16:05:40.042Z,30.10
2018-08-20T16:08:08.623Z,30.00
2018-08-20T16:10:37.171Z,30.00
2018-08-20T16:13:05.802Z,30.00
2018-08-20T16:15:34.354Z,30.00
2018-08-20T16:18:02.874Z,30.00
2018-08-20T16:20:31.416Z,29.90
2018-08-20T16:23:00.011Z,29.80
2018-08-20T16:25:28.535Z,29.70
2018-08-20T16:27:57.194Z,29.70
2018-08-20T16:30:25.817Z,29.70
2018-08-20T16:32:54.339Z,29.60
2018-08-20T16:35:22.902Z,29.50
2018-08-20T16:37:51.524Z,29.50
2018-08-20T16:40:20.104Z,29.50
2018-08-20T16:42:48.670Z,29.40
2018-08-20T16:45:17.291Z,29.40
2018-08-20T16:47:45.870Z,29.10
2018-08-20T16:50:14.475Z,29.10
2018-08-20T16:52:43.492Z,29.00
2018-08-20T16:55:12.064Z,29.00
2018-08-20T16:57:40.604Z,28.80
2018-08-20T17:00:11.123Z,28.70
2018-08-20T17:02:40.367Z,28.50
2018-08-20T17:05:10.366Z,28.50
2018-08-20T17:07:38.959Z,28.40
2018-08-20T17:10:09.871Z,28.40
2018-08-20T17:12:38.416Z,28.30
2018-08-20T17:15:11.452Z,28.30
2018-08-20T17:17:40.381Z,28.20
2018-08-20T17:20:10.286Z,28.10
2018-08-20T17:22:38.903Z,28.00
2018-08-20T17:25:08.235Z,27.90
2018-08-20T17:27:36.827Z,27.80
2018-08-20T17:30:07.548Z,27.70
2018-08-20T17:32:36.162Z,27.70
2018-08-20T17:35:07.108Z,27.60
2018-08-20T17:37:35.710Z,27.50
2018-08-20T17:40:07.729Z,27.40
2018-08-20T17:42:36.265Z,27.40
2018-08-20T17:45:05.345Z,27.30
2018-08-20T17:47:34.162Z,27.20
2018-08-20T17:50:02.715Z,27.20
2018-08-20T17:52:36.985Z,27.10
2018-08-20T17:55:06.000Z,27.00
2018-08-20T17:57:34.551Z,27.00
2018-08-20T18:00:24.386Z,26.90
2018-08-20T18:02:52.976Z,26.80
2018-08-20T18:05:23.048Z,26.80
2018-08-20T18:07:51.918Z,26.70
2018-08-20T18:10:20.534Z,26.60
2018-08-20T18:12:49.078Z,26.60
2018-08-20T18:15:17.651Z,26.50
2018-08-20T18:17:46.551Z,26.40
2018-08-20T18:20:15.068Z,26.30
2018-08-20T18:22:43.711Z,26.30
2018-08-20T18:25:12.243Z,26.20
2018-08-20T18:27:55.399Z,26.10
2018-08-20T18:30:24.015Z,26.10
2018-08-20T18:32:52.599Z,26.00
2018-08-20T18:35:24.587Z,25.90
2018-08-20T18:37:53.168Z,25.90
2018-08-20T18:40:21.718Z,25.80
2018-08-20T18:42:50.284Z,25.80
2018-08-20T18:45:18.838Z,25.70
2018-08-20T18:47:47.390Z,25.60
2018-08-20T18:50:15.924Z,25.60
2018-08-20T18:52:44.475Z,25.40
2018-08-20T18:55:13.869Z,25.30
2018-08-20T18:57:42.480Z,25.30
2018-08-20T19:00:12.657Z,25.10
2018-08-20T19:02:43.768Z,25.00
2018-08-20T19:05:14.118Z,24.90
2018-08-20T19:07:43.103Z,24.90
2018-08-20T19:10:16.754Z,24.80
2018-08-20T19:12:45.845Z,24.70
2018-08-20T19:15:25.424Z,24.60
2018-08-20T19:17:54.026Z,24.50
2018-08-20T19:20:22.584Z,24.40
2018-08-20T19:22:51.163Z,24.30
2018-08-20T19:25:19.726Z,24.20
2018-08-20T19:27:48.309Z,24.10
2018-08-20T19:30:24.797Z,24.00
2018-08-20T19:32:53.359Z,23.90
2018-08-20T19:35:21.948Z,23.90
2018-08-20T19:37:50.515Z,23.80
2018-08-20T19:40:19.100Z,23.80
2018-08-20T19:42:48.635Z,23.70
2018-08-20T19:45:17.150Z,23.60
2018-08-20T19:47:45.756Z,23.50
2018-08-20T19:50:14.316Z,23.40
2018-08-20T19:52:42.895Z,23.40
2018-08-20T19:55:12.501Z,23.30
2018-08-20T19:57:41.080Z,23.20
2018-08-20T20:00:11.446Z,23.20
2018-08-20T20:02:41.863Z,23.10
2018-08-20T20:05:13.194Z,23.00
2018-08-20T20:07:51.208Z,23.00
2018-08-20T20:10:19.975Z,22.90
2018-08-20T20:12:55.629Z,22.80
2018-08-20T20:15:25.147Z,22.70
2018-08-20T20:17:54.714Z,22.50
2018-08-20T20:20:23.281Z,22.40
2018-08-20T20:22:51.875Z,22.40
2018-08-20T20:25:20.391Z,22.40
2018-08-20T20:27:49.022Z,22.40
2018-08-20T20:30:17.584Z,22.30
2018-08-20T20:32:46.209Z,22.20
2018-08-20T20:35:14.835Z,22.20
2018-08-20T20:37:43.376Z,22.10
2018-08-20T20:40:12.018Z,22.00
2018-08-20T20:42:40.626Z,21.80
2018-08-20T20:45:09.224Z,21.80
2018-08-20T20:47:37.814Z,21.70
2018-08-20T20:50:06.436Z,21.50
2018-08-20T20:52:35.005Z,21.50
2018-08-20T20:55:03.624Z,21.40
2018-08-20T20:57:32.163Z,21.40
2018-08-20T21:00:00.768Z,21.40
2018-08-20T21:02:29.300Z,21.30
2018-08-20T21:05:12.250Z,21.30
2018-08-20T21:07:40.815Z,21.30
2018-08-20T21:10:09.480Z,21.30
2018-08-20T21:12:38.035Z,21.20
2018-08-20T21:15:08.010Z,21.20
2018-08-20T21:17:37.316Z,21.20
2018-08-20T21:20:06.631Z,21.20
2018-08-20T21:22:36.908Z,21.10
2018-08-20T21:25:06.534Z,21.00
2018-08-20T21:27:35.119Z,20.90
2018-08-20T21:30:03.787Z,20.90
2018-08-20T21:32:32.367Z,20.80
2018-08-20T21:35:01.016Z,20.80
2018-08-20T21:37:29.536Z,20.90
2018-08-20T21:39:58.114Z,20.80
2018-08-20T21:42:32.017Z,20.80
2018-08-20T21:45:00.575Z,20.80
2018-08-20T21:47:30.584Z,20.80
2018-08-20T21:49:59.106Z,20.70
2018-08-20T21:52:27.730Z,20.50
2018-08-20T21:54:56.262Z,20.40
2018-08-20T21:57:31.246Z,20.40
2018-08-20T22:00:06.090Z,20.40
2018-08-20T22:02:34.670Z,20.40
2018-08-20T22:05:03.257Z,20.30
2018-08-20T22:07:31.968Z,20.20
2018-08-20T22:10:00.582Z,20.20
2018-08-20T22:12:29.120Z,20.20
2018-08-20T22:14:57.687Z,20.20
2018-08-20T22:17:29.130Z,20.20
2018-08-20T22:19:57.802Z,20.30
2018-08-20T22:22:27.647Z,20.30
2018-08-20T22:24:58.192Z,20.20
2018-08-20T22:27:27.579Z,20.30
2018-08-20T22:30:00.265Z,20.20
2018-08-20T22:32:28.907Z,20.20
2018-08-20T22:34:57.503Z,20.20
2018-08-20T22:37:26.063Z,20.10
2018-08-20T22:39:59.970Z,20.10
2018-08-20T22:42:41.619Z,20.10
2018-08-20T22:45:11.403Z,19.90
2018-08-20T22:47:39.993Z,19.80
2018-08-20T22:50:08.639Z,19.80
2018-08-20T22:52:37.303Z,19.80
2018-08-20T22:55:07.442Z,19.80
2018-08-20T22:57:35.997Z,19.80
2018-08-20T23:00:11.274Z,19.80
2018-08-20T23:02:39.843Z,19.70
2018-08-20T23:05:12.646Z,19.70
2018-08-20T23:07:41.291Z,19.70
2018-08-20T23:10:09.852Z,19.60
2018-08-20T23:12:42.365Z,19.60
2018-08-20T23:15:13.190Z,19.50
2018-08-20T23:17:42.383Z,19.50
2018-08-20T23:20:19.014Z,19.50
2018-08-20T23:22:48.659Z,19.50
2018-08-20T23:25:17.171Z,19.50
2018-08-20T23:27:45.752Z,19.50
2018-08-20T23:30:14.855Z,19.50
2018-08-20T23:32:46.316Z,19.50
2018-08-20T23:35:14.883Z,19.50
2018-08-20T23:37:43.442Z,19.40
2018-08-20T23:40:11.962Z,19.40
2018-08-20T23:42:40.534Z,19.40
2018-08-20T23:45:09.123Z,19.40
2018-08-20T23:47:37.679Z,19.30
2018-08-20T23:50:06.840Z,19.30
2018-08-20T23:52:35.359Z,19.30
2018-08-20T23:55:04.001Z,19.30
2018-08-20T23:57:32.566Z,19.30
